This is the latest recevied weather packets stored in our database for station/object DK7AK. If no packets are shown the sender has not sent any weather packets the latest 10 day(s).
| Time | Temp. | Humidity | Pressure | Rain* | Wind** | Luminosity | Snow |
|---|---|---|---|---|---|---|---|
| 1777057504 | 13.33° C | 52% | 1012 hPa | 0 mm | - | - | - |
| 1777056604 | 13.89° C | 49% | 1012.1 hPa | 0 mm | - | - | - |
| 1777046104 | 19.44° C | 33% | 1012.1 hPa | 0 mm | - | - | - |
| 1777045804 | 19.44° C | 33% | 1012.1 hPa | 0 mm | - | - | - |
| 1777044904 | 19.44° C | 33% | 1012.1 hPa | 0 mm | - | - | - |
| 1777044304 | 18.89° C | 34% | 1012.2 hPa | 0 mm | - | - | - |
| 1777043404 | 20° C | 34% | 1012.4 hPa | 0 mm | - | - | - |
| 1777041904 | 19.44° C | 40% | 1012.2 hPa | 0 mm | - | - | - |
| 1777041003 | 19.44° C | 37% | 1012.4 hPa | 0 mm | - | - | - |
| 1777038905 | 19.44° C | 37% | 1012.6 hPa | 0 mm | - | - | - |
| 1777038004 | 18.89° C | 38% | 1012.5 hPa | 0 mm | - | - | - |
| 1777034404 | 18.33° C | 35% | 1012.9 hPa | 0 mm | - | - | - |
| 1777033504 | 18.33° C | 34% | 1013.2 hPa | 0 mm | - | - | - |
| 1777029904 | 17.22° C | 37% | 1013.6 hPa | 0 mm | - | - | - |
| 1777026904 | 16.67° C | 37% | 1013.8 hPa | 0 mm | - | - | - |
| 1777022704 | 15° C | 38% | 1013.9 hPa | 0 mm | - | - | - |
| 1777021804 | 15.56° C | 38% | 1014.2 hPa | 0 mm | - | - | - |
| 1777021504 | 15.56° C | 39% | 1014.1 hPa | 0 mm | - | - | - |
| 1777017304 | 13.33° C | 46% | 1014.4 hPa | 0 mm | - | - | - |
| 1776977405 | 11.11° C | 50% | 1016.2 hPa | 0 mm | - | - | - |
| 1776976505 | 11.67° C | 45% | 1016.1 hPa | 0 mm | - | - | - |
| 1776975905 | 11.67° C | 44% | 1016.3 hPa | 0 mm | - | - | - |
| 1776975305 | 12.22° C | 43% | 1016.2 hPa | 0 mm | - | - | - |
| 1776973505 | 12.78° C | 40% | 1016.5 hPa | 0 mm | - | - | - |
| 1776967204 | 16.67° C | 15% | 1015.7 hPa | 0 mm | - | - | - |
* Rain latest hour (hover to see other rain measurements)
** Current wind speed in m/s (hover to see current wind gust speed)